createdAt,value
2018-04-25T00:00:33.494Z,72.40
2018-04-25T00:03:01.784Z,73.60
2018-04-25T00:05:29.315Z,73.50
2018-04-25T00:07:56.830Z,74.10
2018-04-25T00:10:24.360Z,74.00
2018-04-25T00:12:52.637Z,74.40
2018-04-25T00:15:20.913Z,76.20
2018-04-25T00:17:49.209Z,74.80
2018-04-25T00:20:17.497Z,73.90
2018-04-25T00:22:45.775Z,73.90
2018-04-25T00:25:14.068Z,74.40
2018-04-25T00:27:42.383Z,74.70
2018-04-25T00:30:09.885Z,74.70
2018-04-25T00:32:37.416Z,75.70
2018-04-25T00:35:04.917Z,74.90
2018-04-25T00:37:33.197Z,76.00
2018-04-25T00:40:02.258Z,75.80
2018-04-25T00:42:29.779Z,75.80
2018-04-25T00:44:58.056Z,74.90
2018-04-25T00:47:26.345Z,74.50
2018-04-25T00:49:54.625Z,74.20
2018-04-25T00:52:22.908Z,74.80
2018-04-25T00:54:51.206Z,74.90
2018-04-25T00:57:18.719Z,74.90
2018-04-25T00:59:47.012Z,74.40
2018-04-25T01:02:14.665Z,74.30
2018-04-25T01:04:42.180Z,75.10
2018-04-25T01:07:09.690Z,75.00
2018-04-25T01:09:37.234Z,75.20
2018-04-25T01:12:04.735Z,74.40
2018-04-25T01:14:32.243Z,74.50
2018-04-25T01:16:59.776Z,73.90
2018-04-25T01:19:28.049Z,75.10
2018-04-25T01:21:56.323Z,73.90
2018-04-25T01:24:23.857Z,73.90
2018-04-25T01:26:51.392Z,74.00
2018-04-25T01:29:21.805Z,74.40
2018-04-25T01:31:52.071Z,76.20
2018-04-25T01:34:26.129Z,75.40
2018-04-25T01:36:59.630Z,75.30
2018-04-25T01:39:40.442Z,74.80
2018-04-25T01:49:02.337Z,75.20
2018-04-25T01:51:41.509Z,75.90
2018-04-25T01:54:21.005Z,75.20
2018-04-25T01:57:00.166Z,74.30
2018-04-25T01:59:39.645Z,74.50
2018-04-25T02:02:07.439Z,74.90
2018-04-25T02:04:35.120Z,74.90
2018-04-25T02:07:02.636Z,74.90
2018-04-25T02:09:30.137Z,75.20
2018-04-25T02:11:57.649Z,75.10
2018-04-25T02:14:25.181Z,75.20
2018-04-25T02:16:52.696Z,74.70
2018-04-25T02:19:20.980Z,75.40
2018-04-25T02:21:49.275Z,75.60
2018-04-25T02:24:17.551Z,75.70
2018-04-25T02:26:45.079Z,75.60
2018-04-25T02:29:12.609Z,76.80
2018-04-25T02:31:40.130Z,76.50
2018-04-25T02:34:08.398Z,76.10
2018-04-25T02:36:37.447Z,76.80
2018-04-25T02:39:04.956Z,76.80
2018-04-25T02:41:33.228Z,78.70
2018-04-25T02:44:00.765Z,78.70
2018-04-25T02:46:28.291Z,78.80
2018-04-25T02:48:56.565Z,78.50
2018-04-25T02:51:24.873Z,78.00
2018-04-25T02:53:52.388Z,77.90
2018-04-25T02:56:19.916Z,77.80
2018-04-25T02:58:47.467Z,78.30
2018-04-25T03:01:14.982Z,78.00
2018-04-25T03:03:42.497Z,78.10
2018-04-25T03:06:10.137Z,78.30
2018-04-25T03:08:38.413Z,77.50
2018-04-25T03:11:06.685Z,77.30
2018-04-25T03:13:34.209Z,77.20
2018-04-25T03:16:01.755Z,77.90
2018-04-25T03:18:29.276Z,77.50
2018-04-25T03:20:57.590Z,77.30
2018-04-25T03:23:25.107Z,77.20
2018-04-25T03:25:53.392Z,76.60
2018-04-25T03:28:22.432Z,77.40
2018-04-25T03:30:49.949Z,77.30
2018-04-25T03:33:17.460Z,78.00
2018-04-25T03:35:45.002Z,78.00
2018-04-25T03:38:13.299Z,78.90
2018-04-25T03:40:41.574Z,78.00
2018-04-25T03:43:09.884Z,78.10
2018-04-25T03:45:37.405Z,78.00
2018-04-25T03:48:05.684Z,77.90
2018-04-25T03:50:33.241Z,77.80
2018-04-25T03:53:01.521Z,78.20
2018-04-25T03:55:29.088Z,78.20
2018-04-25T03:57:57.395Z,78.70
2018-04-25T04:00:24.912Z,78.70
2018-04-25T04:02:52.416Z,78.00
2018-04-25T04:05:20.847Z,78.70
2018-04-25T04:07:49.201Z,78.60
2018-04-25T04:10:16.734Z,78.90
2018-04-25T04:12:45.048Z,78.50
2018-04-25T04:15:12.603Z,79.00
2018-04-25T04:17:40.881Z,78.90
2018-04-25T04:20:09.196Z,79.70
2018-04-25T04:22:36.713Z,79.70
2018-04-25T04:25:05.050Z,79.50
2018-04-25T04:27:32.605Z,79.40
2018-04-25T04:30:00.129Z,79.30
2018-04-25T04:32:28.417Z,80.60
2018-04-25T04:34:55.965Z,80.60
2018-04-25T04:37:23.502Z,80.00
2018-04-25T04:39:51.013Z,79.90
2018-04-25T04:42:19.321Z,79.50
2018-04-25T04:44:46.845Z,79.40
2018-04-25T04:47:15.123Z,79.50
2018-04-25T04:49:42.701Z,79.50
2018-04-25T04:52:10.977Z,79.80
2018-04-25T04:54:39.266Z,79.80
2018-04-25T04:57:07.569Z,79.80
2018-04-25T04:59:35.105Z,79.80
2018-04-25T05:02:03.385Z,80.10
2018-04-25T05:04:31.684Z,80.00
2018-04-25T05:06:59.201Z,79.90
2018-04-25T05:09:26.876Z,79.90
2018-04-25T05:11:55.185Z,79.80
2018-04-25T05:14:23.469Z,79.30
2018-04-25T05:16:51.751Z,79.10
2018-04-25T05:19:20.057Z,78.90
2018-04-25T05:21:47.569Z,78.90
2018-04-25T05:24:15.141Z,78.80
2018-04-25T05:26:43.444Z,78.30
2018-04-25T05:29:11.762Z,77.50
2018-04-25T05:31:39.294Z,77.40
2018-04-25T05:34:06.847Z,77.80
2018-04-25T05:36:35.174Z,77.50
2018-04-25T05:39:02.693Z,77.50
2018-04-25T05:41:31.016Z,77.00
2018-04-25T05:43:58.567Z,76.90
2018-04-25T05:46:26.074Z,76.30
2018-04-25T05:48:53.799Z,75.80
2018-04-25T05:51:21.326Z,74.10
2018-04-25T05:53:48.837Z,74.00
2018-04-25T05:56:16.370Z,72.70
2018-04-25T05:58:44.651Z,71.60
2018-04-25T06:01:12.175Z,71.60
2018-04-25T06:03:39.708Z,71.60
2018-04-25T06:06:07.258Z,70.30
2018-04-25T06:08:34.828Z,69.40
2018-04-25T06:11:02.418Z,68.30
2018-04-25T06:13:29.933Z,66.60
2018-04-25T06:15:58.209Z,66.60
2018-04-25T06:18:26.514Z,64.60
2018-04-25T06:20:54.035Z,64.60
2018-04-25T06:23:21.543Z,63.70
2018-04-25T06:25:49.085Z,62.80
2018-04-25T06:28:17.424Z,62.10
2018-04-25T06:30:44.917Z,62.00
2018-04-25T06:33:13.216Z,61.50
2018-04-25T06:35:41.516Z,61.70
2018-04-25T06:38:09.044Z,61.60
2018-04-25T06:40:38.106Z,61.70
2018-04-25T06:43:05.623Z,61.70
2018-04-25T06:45:33.902Z,61.80
2018-04-25T06:48:02.215Z,62.30
2018-04-25T06:50:29.773Z,62.20
2018-04-25T06:52:58.052Z,61.30
2018-04-25T06:55:25.594Z,61.30
2018-04-25T06:57:53.893Z,58.80
2018-04-25T07:00:21.408Z,58.70
2018-04-25T07:02:49.031Z,56.70
2018-04-25T07:05:16.582Z,56.20
2018-04-25T07:07:44.105Z,54.40
2018-04-25T07:10:11.638Z,53.60
2018-04-25T07:12:39.286Z,53.30
2018-04-25T07:15:06.852Z,51.70
2018-04-25T07:17:34.410Z,50.70
2018-04-25T07:20:01.936Z,50.50
2018-04-25T07:22:29.453Z,48.70
2018-04-25T07:24:57.001Z,48.30
2018-04-25T07:27:24.525Z,45.70
2018-04-25T07:29:52.050Z,45.00
2018-04-25T07:32:19.608Z,44.20
2018-04-25T07:34:48.015Z,42.40
2018-04-25T07:37:15.530Z,42.90
2018-04-25T07:39:43.817Z,40.20
2018-04-25T07:42:12.093Z,39.20
2018-04-25T07:44:40.392Z,39.30
2018-04-25T07:47:07.930Z,39.20
2018-04-25T07:49:36.210Z,37.30
2018-04-25T07:52:04.476Z,35.40
2018-04-25T07:54:32.028Z,35.30
2018-04-25T07:56:59.533Z,36.40
2018-04-25T07:59:27.805Z,36.30
2018-04-25T08:01:56.110Z,34.90
2018-04-25T08:04:23.640Z,34.80
2018-04-25T08:06:51.141Z,34.60
2018-04-25T08:09:18.708Z,35.20
2018-04-25T08:11:46.267Z,34.90
2018-04-25T08:14:39.581Z,33.60
2018-04-25T08:17:18.854Z,33.80
2018-04-25T08:19:58.372Z,32.50
2018-04-25T08:22:26.653Z,31.40
2018-04-25T08:24:54.929Z,30.90
2018-04-25T08:27:23.238Z,32.00
2018-04-25T08:29:50.756Z,32.00
2018-04-25T08:32:18.266Z,32.20
2018-04-25T08:34:45.792Z,31.60
2018-04-25T08:37:14.083Z,29.90
2018-04-25T08:39:41.665Z,30.30
2018-04-25T08:42:09.188Z,29.00
2018-04-25T08:44:36.709Z,29.30
2018-04-25T08:47:04.249Z,30.00
2018-04-25T08:49:32.542Z,29.10
2018-04-25T08:52:00.052Z,28.50
2018-04-25T08:54:27.553Z,29.20
2018-04-25T08:56:55.855Z,28.30
2018-04-25T08:59:23.358Z,28.20
2018-04-25T09:01:50.868Z,28.10
2018-04-25T09:04:19.154Z,27.70
2018-04-25T09:06:46.669Z,27.70
2018-04-25T09:09:14.191Z,27.10
2018-04-25T09:11:41.756Z,27.10
2018-04-25T09:14:09.269Z,26.80
2018-04-25T09:16:38.678Z,26.10
2018-04-25T09:19:06.216Z,26.10
2018-04-25T09:21:34.490Z,26.40
2018-04-25T09:24:02.004Z,26.40
2018-04-25T09:26:30.321Z,26.70
2018-04-25T09:28:57.883Z,26.70
2018-04-25T09:31:25.441Z,26.80
2018-04-25T09:33:52.965Z,27.10
2018-04-25T09:36:20.564Z,27.40
2018-04-25T09:38:48.090Z,27.80
2018-04-25T09:41:16.394Z,27.30
2018-04-25T09:43:44.677Z,27.00
2018-04-25T09:46:12.953Z,27.20
2018-04-25T09:48:41.250Z,27.10
2018-04-25T09:51:09.525Z,27.10
2018-04-25T09:53:37.801Z,26.50
2018-04-25T09:56:06.106Z,26.50
2018-04-25T09:58:33.632Z,26.50
2018-04-25T10:01:01.915Z,25.80
2018-04-25T10:03:29.458Z,25.70
2018-04-25T10:05:56.982Z,25.10
2018-04-25T10:08:24.584Z,27.00
2018-04-25T10:10:52.101Z,27.00
2018-04-25T10:13:20.365Z,26.80
2018-04-25T10:15:48.645Z,26.20
2018-04-25T10:18:17.050Z,28.30
2018-04-25T10:20:44.567Z,28.20
2018-04-25T10:23:12.092Z,30.90
2018-04-25T10:25:39.698Z,33.00
2018-04-25T10:28:07.181Z,32.90
2018-04-25T10:30:35.466Z,34.00
2018-04-25T10:33:03.761Z,31.60
2018-04-25T10:35:32.081Z,30.00
2018-04-25T10:37:59.597Z,30.00
2018-04-25T10:40:28.009Z,32.10
2018-04-25T10:42:55.460Z,32.00
2018-04-25T10:45:22.973Z,31.80
2018-04-25T10:47:50.514Z,32.80
2018-04-25T10:50:18.025Z,32.30
2018-04-25T10:52:45.530Z,30.20
2018-04-25T10:55:13.073Z,28.90
2018-04-25T10:57:41.337Z,27.30
2018-04-25T11:00:09.616Z,25.70
2018-04-25T11:02:37.912Z,25.80
2018-04-25T11:05:06.189Z,25.20
2018-04-25T11:07:34.466Z,26.60
2018-04-25T11:10:02.821Z,26.80
2018-04-25T11:12:30.342Z,26.80
2018-04-25T11:14:57.897Z,25.80
2018-04-25T11:17:25.431Z,27.30
2018-04-25T11:19:53.910Z,25.80
2018-04-25T11:22:21.425Z,25.80
2018-04-25T11:24:49.736Z,25.80
2018-04-25T11:27:17.253Z,25.80
2018-04-25T11:29:44.761Z,25.80
2018-04-25T11:32:12.290Z,26.60
2018-04-25T11:34:39.796Z,26.60
2018-04-25T11:37:07.325Z,29.10
2018-04-25T11:39:34.873Z,29.80
2018-04-25T11:42:02.388Z,30.40
2018-04-25T11:44:29.910Z,30.90
2018-04-25T11:46:58.285Z,33.60
2018-04-25T11:49:25.801Z,33.50
2018-04-25T11:51:53.317Z,35.20
2018-04-25T11:54:20.889Z,35.10
2018-04-25T11:56:48.424Z,36.40
2018-04-25T11:59:16.701Z,38.30
2018-04-25T12:01:45.000Z,38.00
2018-04-25T12:04:12.521Z,37.90
2018-04-25T12:06:40.046Z,37.10
2018-04-25T12:09:07.598Z,37.70
2018-04-25T12:11:35.104Z,37.30
2018-04-25T12:14:02.615Z,37.70
2018-04-25T12:16:30.913Z,37.00
2018-04-25T12:18:58.422Z,36.90
2018-04-25T12:21:26.061Z,36.60
2018-04-25T12:23:54.433Z,32.30
2018-04-25T12:26:21.932Z,32.20
2018-04-25T12:28:49.441Z,30.30
2018-04-25T12:31:17.740Z,29.90
2018-04-25T12:33:45.257Z,29.80
2018-04-25T12:36:12.774Z,30.60
2018-04-25T12:38:40.300Z,32.50
2018-04-25T12:41:08.578Z,34.20
2018-04-25T12:43:36.849Z,33.80
2018-04-25T12:46:05.160Z,33.40
2018-04-25T12:48:32.741Z,33.10
2018-04-25T12:51:00.316Z,34.00
2018-04-25T12:53:27.836Z,32.20
2018-04-25T12:55:56.120Z,28.60
2018-04-25T12:58:24.412Z,29.70
2018-04-25T13:00:52.702Z,30.00
2018-04-25T13:03:20.993Z,30.70
2018-04-25T13:05:48.505Z,30.60
2018-04-25T13:08:16.049Z,30.20
2018-04-25T13:10:43.558Z,30.10
2018-04-25T13:13:11.829Z,30.80
2018-04-25T13:15:39.357Z,30.80
2018-04-25T13:18:07.645Z,29.80
2018-04-25T13:20:35.172Z,29.80
2018-04-25T13:23:02.921Z,29.90
2018-04-25T13:25:30.440Z,30.80
2018-04-25T13:27:57.948Z,31.30
2018-04-25T13:30:25.529Z,31.80
2018-04-25T13:32:53.049Z,31.60
2018-04-25T13:35:20.571Z,31.10
2018-04-25T13:37:48.177Z,31.30
2018-04-25T13:40:15.680Z,31.00
2018-04-25T13:42:43.207Z,30.50
2018-04-25T13:45:10.743Z,30.40
2018-04-25T13:47:38.325Z,31.20
2018-04-25T13:50:05.965Z,32.20
2018-04-25T13:52:33.606Z,33.10
2018-04-25T13:55:01.069Z,33.50
2018-04-25T13:57:28.638Z,33.80
2018-04-25T13:59:56.202Z,34.00
2018-04-25T14:02:23.711Z,34.80
2018-04-25T14:04:51.253Z,33.50
2018-04-25T14:07:18.799Z,33.70
2018-04-25T14:09:46.325Z,32.60
2018-04-25T14:12:13.921Z,33.60
2018-04-25T14:14:41.506Z,33.40
2018-04-25T14:17:09.041Z,33.80
2018-04-25T14:19:37.343Z,34.40
2018-04-25T14:22:04.877Z,34.40
2018-04-25T14:24:32.528Z,34.90
2018-04-25T14:27:00.053Z,35.00
2018-04-25T14:29:27.591Z,34.60
2018-04-25T14:31:55.110Z,34.70
2018-04-25T14:34:22.620Z,34.90
2018-04-25T14:36:50.151Z,34.80
2018-04-25T14:39:17.657Z,35.40
2018-04-25T14:41:45.175Z,35.30
2018-04-25T14:44:12.713Z,35.90
2018-04-25T14:46:40.225Z,36.10
2018-04-25T14:49:08.502Z,37.30
2018-04-25T14:51:36.793Z,36.60
2018-04-25T14:54:05.082Z,36.50
2018-04-25T14:56:32.658Z,36.50
2018-04-25T14:59:00.201Z,36.50
2018-04-25T15:01:28.570Z,36.70
2018-04-25T15:03:56.081Z,36.60
2018-04-25T15:06:23.609Z,35.80
2018-04-25T15:08:51.948Z,36.80
2018-04-25T15:11:19.425Z,36.80
2018-04-25T15:13:47.762Z,37.90
2018-04-25T15:16:15.266Z,37.90
2018-04-25T15:18:42.793Z,38.20
2018-04-25T15:21:10.324Z,38.50
2018-04-25T15:23:38.597Z,39.60
2018-04-25T15:26:06.185Z,39.50
2018-04-25T15:28:33.716Z,39.90
2018-04-25T15:31:01.449Z,41.00
2018-04-25T15:33:29.265Z,40.90
2018-04-25T15:35:56.770Z,40.90
2018-04-25T15:38:25.047Z,42.00
2018-04-25T15:40:52.554Z,42.00
2018-04-25T15:43:20.876Z,41.70
2018-04-25T15:45:49.157Z,42.50
2018-04-25T15:48:17.455Z,42.00
2018-04-25T15:50:45.014Z,42.00
2018-04-25T15:53:12.534Z,42.20
2018-04-25T15:55:40.839Z,41.60
2018-04-25T15:58:09.141Z,42.00
2018-04-25T16:00:36.657Z,42.00
2018-04-25T16:03:04.180Z,42.60
2018-04-25T16:05:31.712Z,42.10
2018-04-25T16:07:59.989Z,42.60
2018-04-25T16:10:28.283Z,42.90
2018-04-25T16:12:56.593Z,43.30
2018-04-25T16:15:24.092Z,43.30
2018-04-25T16:17:51.711Z,43.50
2018-04-25T16:20:19.253Z,43.50
2018-04-25T16:22:47.603Z,42.80
2018-04-25T16:25:15.103Z,42.80
2018-04-25T16:27:43.535Z,42.90
2018-04-25T16:30:11.809Z,43.00
2018-04-25T16:32:40.101Z,43.20
2018-04-25T16:35:07.645Z,43.20
2018-04-25T16:37:35.152Z,43.00
2018-04-25T16:40:02.746Z,43.20
2018-04-25T16:42:31.063Z,43.10
2018-04-25T16:44:58.597Z,43.10
2018-04-25T16:47:26.113Z,43.40
2018-04-25T16:49:53.653Z,43.50
2018-04-25T16:52:21.164Z,43.50
2018-04-25T16:54:48.676Z,43.80
2018-04-25T16:57:16.237Z,44.00
2018-04-25T16:59:43.776Z,44.10
2018-04-25T17:02:12.075Z,44.20
2018-04-25T17:04:39.613Z,44.20
2018-04-25T17:07:07.886Z,44.70
2018-04-25T17:09:35.503Z,44.60
2018-04-25T17:12:02.970Z,43.90
2018-04-25T17:14:30.487Z,44.20
2018-04-25T17:16:58.023Z,43.90
2018-04-25T17:19:25.568Z,44.60
2018-04-25T17:21:53.083Z,44.60
2018-04-25T17:24:20.613Z,44.30
2018-04-25T17:26:48.173Z,43.90
2018-04-25T17:29:16.761Z,43.90
2018-04-25T17:31:44.297Z,43.60
2018-04-25T17:34:11.833Z,43.30
2018-04-25T17:36:39.365Z,43.50
2018-04-25T17:39:06.890Z,42.90
2018-04-25T17:41:34.441Z,42.70
2018-04-25T17:44:01.949Z,42.90
2018-04-25T17:46:29.462Z,42.90
2018-04-25T17:48:57.069Z,43.00
2018-04-25T17:51:24.646Z,43.40
2018-04-25T17:53:52.186Z,43.20
2018-04-25T17:56:19.729Z,42.70
2018-04-25T17:58:47.260Z,43.50
2018-04-25T18:01:15.554Z,43.10
2018-04-25T18:03:43.127Z,43.10
2018-04-25T18:06:10.651Z,43.40
2018-04-25T18:08:38.178Z,43.70
2018-04-25T18:11:05.737Z,43.50
2018-04-25T18:13:33.261Z,44.00
2018-04-25T18:16:01.550Z,44.00
2018-04-25T18:18:29.853Z,44.10
2018-04-25T18:20:57.379Z,44.10
2018-04-25T18:23:25.709Z,44.30
2018-04-25T18:25:53.287Z,44.20
2018-04-25T18:28:20.848Z,44.20
2018-04-25T18:30:48.445Z,44.50
2018-04-25T18:33:15.990Z,44.70
2018-04-25T18:35:43.500Z,44.70
2018-04-25T18:38:11.785Z,45.00
2018-04-25T18:40:40.092Z,45.60
2018-04-25T18:43:07.602Z,45.50
2018-04-25T18:45:36.620Z,46.70
2018-04-25T18:48:05.545Z,46.00
2018-04-25T18:50:33.112Z,45.90
2018-04-25T18:53:00.634Z,46.00
2018-04-25T18:55:28.209Z,46.10
2018-04-25T18:57:55.823Z,45.90
2018-04-25T19:00:23.336Z,46.90
2018-04-25T19:02:51.665Z,46.80
2018-04-25T19:05:19.869Z,46.70
2018-04-25T19:07:47.388Z,46.60
2018-04-25T19:10:14.970Z,46.70
2018-04-25T19:12:42.508Z,47.40
2018-04-25T19:15:10.798Z,47.80
2018-04-25T19:17:39.113Z,47.50
2018-04-25T19:20:06.650Z,47.40
2018-04-25T19:22:34.173Z,47.40
2018-04-25T19:25:03.233Z,47.50
2018-04-25T19:27:30.751Z,47.40
2018-04-25T19:29:59.037Z,47.60
2018-04-25T19:32:27.380Z,47.50
2018-04-25T19:34:54.902Z,47.40
2018-04-25T19:37:22.429Z,47.70
2018-04-25T19:39:50.046Z,47.30
2018-04-25T19:42:17.602Z,47.30
2018-04-25T19:44:45.157Z,47.60
2018-04-25T19:47:13.469Z,47.90
2018-04-25T19:49:41.750Z,47.90
2018-04-25T19:52:09.274Z,47.60
2018-04-25T19:54:37.611Z,48.40
2018-04-25T19:57:05.127Z,48.30
2018-04-25T19:59:33.389Z,48.70
2018-04-25T20:02:01.732Z,48.80
2018-04-25T20:04:29.253Z,48.70
2018-04-25T20:06:57.533Z,49.40
2018-04-25T20:09:25.837Z,49.10
2018-04-25T20:11:53.361Z,49.00
2018-04-25T20:14:20.865Z,48.80
2018-04-25T20:16:48.431Z,48.90
2018-04-25T20:19:15.968Z,49.10
2018-04-25T20:21:43.497Z,48.90
2018-04-25T20:24:11.033Z,49.20
2018-04-25T20:26:38.540Z,49.50
2018-04-25T20:29:06.833Z,50.10
2018-04-25T20:31:35.141Z,50.00
2018-04-25T20:34:02.706Z,49.90
2018-04-25T20:36:30.221Z,50.10
2018-04-25T20:38:57.770Z,50.60
2018-04-25T20:41:25.289Z,50.40
2018-04-25T20:43:52.817Z,50.70
2018-04-25T20:46:20.369Z,50.90
2018-04-25T20:48:47.909Z,50.80
2018-04-25T20:51:15.437Z,51.10
2018-04-25T20:53:43.757Z,51.50
2018-04-25T20:56:11.269Z,51.50
2018-04-25T20:58:39.557Z,51.90
2018-04-25T21:01:07.862Z,52.60
2018-04-25T21:03:35.382Z,52.50
2018-04-25T21:06:02.921Z,52.60
2018-04-25T21:08:31.246Z,53.30
2018-04-25T21:10:59.539Z,53.30
2018-04-25T21:13:27.045Z,53.20
2018-04-25T21:15:54.582Z,53.20
2018-04-25T21:18:22.118Z,52.90
2018-04-25T21:20:50.394Z,53.80
2018-04-25T21:23:17.946Z,53.80
2018-04-25T21:25:45.484Z,53.70
2018-04-25T21:28:13.014Z,53.50
2018-04-25T21:30:40.559Z,53.40
2018-04-25T21:33:08.846Z,53.50
2018-04-25T21:35:37.406Z,53.60
2018-04-25T21:38:04.971Z,53.70
2018-04-25T21:40:32.484Z,53.90
2018-04-25T21:42:59.998Z,54.00
2018-04-25T21:45:29.042Z,54.20
2018-04-25T21:47:56.563Z,54.10
2018-04-25T21:50:24.088Z,54.00
2018-04-25T21:52:51.624Z,54.30
2018-04-25T21:55:19.136Z,54.60
2018-04-25T21:57:46.642Z,55.00
2018-04-25T22:00:14.932Z,54.60
2018-04-25T22:02:42.466Z,54.60
2018-04-25T22:05:10.782Z,55.00
2018-04-25T22:07:38.325Z,55.00
2018-04-25T22:10:06.609Z,55.50
2018-04-25T22:12:34.895Z,55.60
2018-04-25T22:15:03.242Z,55.60
2018-04-25T22:17:30.757Z,55.60
2018-04-25T22:19:58.312Z,55.40
2018-04-25T22:22:26.628Z,56.00
2018-04-25T22:24:54.170Z,55.90
2018-04-25T22:27:21.696Z,55.90
2018-04-25T22:29:49.314Z,56.10
2018-04-25T22:32:17.136Z,56.70
2018-04-25T22:34:45.441Z,56.20
2018-04-25T22:37:13.859Z,56.30
2018-04-25T22:39:41.399Z,56.20
2018-04-25T22:42:08.910Z,56.10
2018-04-25T22:44:36.465Z,56.10
2018-04-25T22:47:03.990Z,56.00
2018-04-25T22:49:31.677Z,56.10
2018-04-25T22:51:59.253Z,56.30
2018-04-25T22:54:26.775Z,56.60
2018-04-25T22:56:55.053Z,56.70
2018-04-25T22:59:23.390Z,56.80
2018-04-25T23:01:50.906Z,56.70
2018-04-25T23:04:19.186Z,57.30
2018-04-25T23:06:47.485Z,57.40
2018-04-25T23:09:14.993Z,57.40
2018-04-25T23:11:42.518Z,57.60
2018-04-25T23:14:10.058Z,57.70
2018-04-25T23:16:38.343Z,58.50
2018-04-25T23:19:06.626Z,58.60
2018-04-25T23:21:34.177Z,58.50
2018-04-25T23:24:02.487Z,58.60
2018-04-25T23:26:30.011Z,58.60
2018-04-25T23:28:57.545Z,58.90
2018-04-25T23:31:25.075Z,59.20
2018-04-25T23:33:53.376Z,58.80
2018-04-25T23:36:20.934Z,58.80
2018-04-25T23:38:48.593Z,59.80
2018-04-25T23:41:16.115Z,59.30
2018-04-25T23:43:43.683Z,58.90
2018-04-25T23:46:11.207Z,59.70
2018-04-25T23:48:38.730Z,59.30
2018-04-25T23:51:07.034Z,59.70
2018-04-25T23:53:34.591Z,59.70
2018-04-25T23:56:02.123Z,59.30
2018-04-25T23:58:29.660Z,59.20
